Time;durP1;ratioP1;P1;durP2;ratioP2;P2;SDS_P1;SDS_P2;PMS_P1;PMS_P2;Temp;Humidity;BMP_temperature;BMP_pressure;BME280_temperature;BME280_humidity;BME280_pressure;Samples;Min_cycle;Max_cycle;Signal;HPM_P1;HPM_P2
2021/05/17 00:01:32;;;;;;;;;7.00;6.00;;;;;16.86;52.01;97725.31;6241400;27;126911;-62
2021/05/17 00:04:36;;;;;;;;;8.00;6.20;;;;;16.84;52.05;97724.00;6259633;27;124882;-62
2021/05/17 00:07:39;;;;;;;;;8.00;8.00;;;;;16.65;51.66;97702.19;6258815;27;124606;-62
2021/05/17 00:10:44;;;;;;;;;7.60;7.00;;;;;16.68;51.88;97719.81;6255265;27;126341;-62
2021/05/17 00:13:47;;;;;;;;;6.00;6.00;;;;;16.70;52.18;97742.94;6241163;27;123425;-62
2021/05/17 00:16:50;;;;;;;;;7.20;6.00;;;;;16.72;52.13;97720.88;6239154;27;126284;-62
2021/05/17 00:19:53;;;;;;;;;7.40;7.00;;;;;16.73;51.88;97709.69;6245361;27;126493;-62
2021/05/17 00:22:56;;;;;;;;;7.00;6.00;;;;;16.73;51.88;97706.16;6258689;27;125781;-62
2021/05/17 00:26:00;;;;;;;;;7.00;6.00;;;;;16.75;52.01;97704.78;6259364;27;124159;-62
2021/05/17 00:29:05;;;;;;;;;7.60;7.00;;;;;16.73;51.68;97706.16;6240529;27;124737;-61
2021/05/17 00:32:08;;;;;;;;;7.00;7.00;;;;;16.71;51.69;97703.72;6254966;27;126277;-62
2021/05/17 00:35:13;;;;;;;;;8.00;6.40;;;;;16.67;51.95;97699.97;6258591;27;126419;-62
2021/05/17 00:38:16;;;;;;;;;9.00;8.00;;;;;16.68;52.09;97700.78;6258947;27;124990;-62
2021/05/17 00:41:20;;;;;;;;;8.00;7.00;;;;;16.65;51.89;97698.66;6256140;27;124937;-62
2021/05/17 00:44:23;;;;;;;;;7.00;7.00;;;;;16.64;51.89;97694.28;6241362;27;124374;-62
2021/05/17 00:47:39;;;;;;;;;8.00;7.00;;;;;16.56;51.78;97689.47;6234574;27;126216;-62
2021/05/17 00:50:42;;;;;;;;;9.00;8.40;;;;;16.54;51.90;97683.50;6232841;27;124690;-62
2021/05/17 00:53:46;;;;;;;;;8.00;7.60;;;;;16.50;51.68;97668.84;6240275;27;127254;-62
2021/05/17 00:56:50;;;;;;;;;6.00;5.33;;;;;16.54;51.78;97667.16;6215408;27;125314;-62
2021/05/17 00:59:53;;;;;;;;;9.00;8.00;;;;;16.58;51.61;97658.16;6253983;27;126440;-62
2021/05/17 01:02:57;;;;;;;;;7.00;6.00;;;;;16.61;51.48;97654.88;6238730;27;125118;-62
2021/05/17 01:06:17;;;;;;;;;7.60;7.00;;;;;16.69;51.41;97650.69;6246268;27;123828;-62
2021/05/17 01:09:21;;;;;;;;;7.00;7.00;;;;;16.71;51.23;97643.06;6232016;27;124768;-62
2021/05/17 01:12:26;;;;;;;;;5.80;5.00;;;;;16.64;51.12;97623.56;6247933;27;124040;-61
2021/05/17 01:15:30;;;;;;;;;4.00;4.00;;;;;16.84;51.18;97640.44;6240001;28;126102;-62
2021/05/17 01:18:34;;;;;;;;;4.00;4.00;;;;;16.92;50.86;97644.41;6246912;27;124893;-62
2021/05/17 01:21:40;;;;;;;;;5.00;5.00;;;;;16.99;50.71;97642.16;6232503;27;124976;-62
2021/05/17 01:24:45;;;;;;;;;7.00;6.00;;;;;16.92;50.50;97616.38;6264979;27;126929;-62
2021/05/17 01:27:49;;;;;;;;;7.00;6.75;;;;;17.06;50.50;97644.50;6266242;27;125809;-62
2021/05/17 01:30:54;;;;;;;;;6.00;5.00;;;;;17.09;50.62;97646.63;6265841;27;124844;-62
2021/05/17 01:33:57;;;;;;;;;5.60;5.20;;;;;17.04;50.78;97644.00;6260344;27;125859;-62
2021/05/17 01:37:00;;;;;;;;;6.25;6.25;;;;;17.02;51.07;97647.00;6261089;27;124622;-62
2021/05/17 01:40:07;;;;;;;;;5.00;5.00;;;;;16.98;51.06;97659.56;6266107;27;126335;-62
2021/05/17 01:43:13;;;;;;;;;6.00;6.00;;;;;16.74;51.05;97618.78;6240204;27;126553;-62
2021/05/17 01:46:18;;;;;;;;;5.20;4.60;;;;;17.00;50.77;97645.69;6258307;27;126683;-62
2021/05/17 01:49:26;;;;;;;;;8.00;6.00;;;;;17.03;50.83;97645.09;6247741;27;125898;-62
2021/05/17 01:52:29;;;;;;;;;6.00;6.00;;;;;17.07;51.17;97636.03;6256221;27;124712;-62
2021/05/17 01:55:34;;;;;;;;;8.00;6.75;;;;;17.07;51.56;97641.47;6231515;27;124947;-62
2021/05/17 01:58:37;;;;;;;;;7.00;7.00;;;;;17.08;51.42;97645.81;6265698;27;124567;-62
2021/05/17 02:01:44;;;;;;;;;7.00;6.00;;;;;17.09;51.50;97644.72;6266224;27;126577;-61
2021/05/17 02:04:47;;;;;;;;;7.00;7.00;;;;;17.08;51.53;97643.09;6228747;27;123964;-62
2021/05/17 02:07:49;;;;;;;;;7.00;7.00;;;;;17.09;51.85;97655.63;6233552;27;126233;-62
2021/05/17 02:10:54;;;;;;;;;7.00;7.00;;;;;17.04;51.92;97655.69;6259033;27;126222;-62
2021/05/17 02:13:59;;;;;;;;;7.40;7.00;;;;;16.94;51.93;97631.31;6252123;27;124219;-62
2021/05/17 02:17:02;;;;;;;;;6.00;6.00;;;;;17.04;52.21;97646.72;6238844;27;125951;-62
2021/05/17 02:20:07;;;;;;;;;6.60;5.40;;;;;17.03;51.99;97642.38;6226537;27;125119;-62
2021/05/17 02:23:30;;;;;;;;;6.00;6.00;;;;;17.04;52.28;97638.53;6259848;27;125758;-62
2021/05/17 02:26:34;;;;;;;;;5.00;5.00;;;;;17.05;52.32;97657.31;6220803;27;123888;-62
2021/05/17 02:29:37;;;;;;;;;8.00;8.00;;;;;17.04;52.49;97658.41;6245850;27;126116;-62
2021/05/17 02:32:40;;;;;;;;;7.00;6.40;;;;;17.04;52.49;97663.84;6238404;27;126347;-62
2021/05/17 02:35:46;;;;;;;;;9.00;9.00;;;;;17.00;52.29;97651.13;6260886;27;126175;-62
2021/05/17 02:38:51;;;;;;;;;10.00;10.00;;;;;16.94;52.52;97657.72;6223069;27;123910;-62
2021/05/17 02:41:56;;;;;;;;;11.00;9.00;;;;;16.88;52.59;97646.09;6236174;27;126121;-62
2021/05/17 02:44:59;;;;;;;;;8.80;8.80;;;;;16.72;52.58;97614.72;6243956;27;124874;-62
2021/05/17 02:48:06;;;;;;;;;9.00;8.60;;;;;16.88;52.52;97633.31;6244433;27;125788;-62
2021/05/17 02:51:10;;;;;;;;;10.00;9.00;;;;;16.88;52.47;97641.47;6261466;27;124724;-62
2021/05/17 02:54:26;;;;;;;;;12.00;11.00;;;;;16.86;52.50;97645.56;6259808;27;126060;-62
2021/05/17 02:57:39;;;;;;;;;15.00;14.00;;;;;16.86;52.68;97646.38;6249126;27;123875;-61
2021/05/17 03:00:50;;;;;;;;;16.00;15.00;;;;;16.91;52.59;97629.16;6261948;27;124889;-61
2021/05/17 03:03:58;;;;;;;;;19.60;17.60;;;;;16.97;52.47;97624.47;6254317;27;124615;-60
2021/05/17 03:07:05;;;;;;;;;19.00;17.00;;;;;17.00;52.31;97632.88;6240310;27;123836;-61
2021/05/17 03:10:11;;;;;;;;;18.60;18.00;;;;;17.02;52.35;97627.94;6261047;27;124613;-61
2021/05/17 03:13:17;;;;;;;;;16.00;15.00;;;;;17.06;52.42;97633.59;6261663;27;124937;-61
2021/05/17 03:16:22;;;;;;;;;15.00;14.00;;;;;17.09;52.50;97635.75;6260692;27;124725;-61
2021/05/17 03:19:26;;;;;;;;;15.00;14.60;;;;;17.11;52.56;97626.16;6259980;27;125818;-61
2021/05/17 03:22:32;;;;;;;;;15.00;14.20;;;;;17.16;52.54;97625.28;6242068;27;124918;-61
2021/05/17 03:25:36;;;;;;;;;13.80;13.00;;;;;17.19;52.62;97630.97;6252067;27;124515;-61
2021/05/17 03:28:39;;;;;;;;;17.00;15.60;;;;;17.20;52.31;97637.22;6233404;27;123554;-61
2021/05/17 03:31:42;;;;;;;;;17.80;15.80;;;;;17.22;52.50;97644.00;6258770;27;124954;-61
2021/05/17 03:34:45;;;;;;;;;14.00;13.00;;;;;17.25;52.49;97651.56;6260639;27;124672;-61
2021/05/17 03:37:50;;;;;;;;;13.00;12.00;;;;;17.29;52.34;97663.50;6260981;27;125341;-61
2021/05/17 03:40:53;;;;;;;;;13.40;12.00;;;;;17.35;52.10;97680.56;6259149;27;125963;-61
2021/05/17 03:43:56;;;;;;;;;15.40;14.40;;;;;17.42;52.31;97672.03;6261219;27;125074;-61
2021/05/17 03:46:59;;;;;;;;;13.00;12.00;;;;;17.41;52.08;97664.97;6227774;27;127048;-61
2021/05/17 03:50:04;;;;;;;;;11.40;11.00;;;;;17.51;51.99;97671.06;6230556;27;124781;-62
2021/05/17 03:53:07;;;;;;;;;13.00;13.00;;;;;17.59;52.15;97675.09;6260116;27;124794;-61
2021/05/17 03:56:10;;;;;;;;;14.00;13.00;;;;;17.64;52.15;97670.34;6223682;27;123904;-61
2021/05/17 03:59:16;;;;;;;;;13.00;12.00;;;;;17.70;52.22;97680.06;6242026;27;124820;-61
2021/05/17 04:02:21;;;;;;;;;14.25;12.75;;;;;17.77;51.69;97678.88;6250086;27;125616;-60
2021/05/17 04:05:32;;;;;;;;;12.50;12.50;;;;;17.80;51.81;97679.09;6259079;27;125764;-61
2021/05/17 04:15:17;;;;;;;;;8.00;8.00;;;;;17.95;50.69;97676.13;6234177;27;125787;-61
2021/05/17 04:18:21;;;;;;;;;9.50;9.50;;;;;17.92;50.38;97670.47;6256520;27;125875;-61
2021/05/17 04:21:24;;;;;;;;;8.75;8.00;;;;;17.94;49.97;97670.94;6245527;27;125781;-61
2021/05/17 04:24:27;;;;;;;;;11.20;10.00;;;;;17.89;49.86;97671.03;6241889;27;126016;-61
2021/05/17 04:27:30;;;;;;;;;10.80;9.00;;;;;17.85;50.09;97676.28;6251026;27;126192;-61
2021/05/17 04:30:34;;;;;;;;;11.00;10.20;;;;;17.67;50.25;97656.13;6237988;27;124959;-61
2021/05/17 04:33:36;;;;;;;;;13.40;12.40;;;;;17.81;50.35;97678.00;6235265;27;125264;-61
2021/05/17 04:36:39;;;;;;;;;13.00;11.40;;;;;17.78;50.23;97675.06;6244622;27;126210;-61
2021/05/17 04:39:42;;;;;;;;;11.00;10.00;;;;;17.77;50.33;97681.59;6265837;27;126045;-61
2021/05/17 04:42:45;;;;;;;;;10.00;10.00;;;;;17.84;50.66;97682.06;6258573;27;126133;-61
2021/05/17 04:45:48;;;;;;;;;9.00;9.00;;;;;17.87;50.51;97670.53;6259515;27;126958;-61
2021/05/17 04:48:51;;;;;;;;;10.00;9.50;;;;;17.90;50.89;97676.19;6258886;27;126461;-61
2021/05/17 04:51:54;;;;;;;;;9.60;9.00;;;;;17.92;50.66;97674.00;6241436;27;126830;-61
2021/05/17 04:55:01;;;;;;;;;14.40;12.80;;;;;17.97;50.31;97670.38;6237909;27;125046;-61
2021/05/17 04:58:04;;;;;;;;;14.00;13.00;;;;;17.86;50.35;97647.91;6249267;27;125028;-61
2021/05/17 05:01:08;;;;;;;;;13.60;13.00;;;;;18.05;49.91;97673.22;6241178;27;125860;-61
2021/05/17 05:04:10;;;;;;;;;14.60;12.40;;;;;18.01;50.02;97690.47;6259301;27;124742;-61
2021/05/17 05:07:14;;;;;;;;;13.00;13.00;;;;;17.90;50.43;97697.19;6257272;27;126384;-61
2021/05/17 05:10:17;;;;;;;;;11.80;11.20;;;;;17.75;50.62;97704.50;6257012;27;125465;-61
2021/05/17 05:13:21;;;;;;;;;10.00;9.80;;;;;17.82;50.83;97701.44;6259208;27;124940;-61
2021/05/17 05:16:24;;;;;;;;;12.00;11.80;;;;;17.92;51.04;97705.91;6245750;27;124959;-61
2021/05/17 05:19:27;;;;;;;;;11.00;11.00;;;;;18.02;50.72;97703.00;6239064;27;124975;-61
2021/05/17 05:22:30;;;;;;;;;12.40;12.00;;;;;18.12;50.82;97700.94;6258785;27;124682;-61
2021/05/17 05:25:47;;;;;;;;;12.60;12.40;;;;;18.21;50.82;97705.69;6225839;27;126385;-61
2021/05/17 05:29:02;;;;;;;;;13.00;12.00;;;;;18.29;50.27;97699.53;6236051;27;125807;-61
2021/05/17 05:32:20;;;;;;;;;10.00;10.00;;;;;18.37;50.44;97699.66;6253787;27;125443;-62
2021/05/17 05:35:24;;;;;;;;;10.00;10.00;;;;;18.49;49.94;97696.44;6254556;27;126612;-61
2021/05/17 05:38:27;;;;;;;;;13.00;12.25;;;;;18.55;49.98;97687.88;6234823;27;127462;-61
2021/05/17 05:41:30;;;;;;;;;17.00;15.00;;;;;18.62;49.95;97686.69;6245395;27;125939;-61
2021/05/17 05:44:40;;;;;;;;;13.00;12.00;;;;;18.78;49.69;97680.59;6232642;27;126948;-61
2021/05/17 05:47:43;;;;;;;;;13.00;11.40;;;;;18.97;49.56;97677.75;6238283;27;125006;-61
2021/05/17 05:50:46;;;;;;;;;13.50;13.00;;;;;19.12;50.10;97669.25;6252774;27;125029;-61
2021/05/17 05:53:50;;;;;;;;;12.50;12.50;;;;;19.25;49.37;97654.75;6244724;27;126310;-61
2021/05/17 05:56:54;;;;;;;;;13.00;12.00;;;;;19.57;49.02;97661.16;6238942;27;125788;-61
2021/05/17 05:59:59;;;;;;;;;13.00;11.00;;;;;19.81;48.14;97662.47;6228462;27;123187;-61
2021/05/17 06:03:05;;;;;;;;;12.40;12.00;;;;;20.01;47.51;97661.16;6243894;27;125247;-61
2021/05/17 06:06:08;;;;;;;;;12.50;12.00;;;;;20.28;47.12;97665.66;6262397;27;124523;-62
2021/05/17 06:09:22;;;;;;;;;11.00;11.00;;;;;20.39;45.95;97658.81;6257163;27;96211;-61
2021/05/17 06:12:26;;;;;;;;;10.20;10.00;;;;;20.54;45.66;97663.06;6221275;28;126212;-61
2021/05/17 06:15:30;;;;;;;;;12.00;11.00;;;;;20.67;45.01;97665.69;6212457;28;126198;-61
2021/05/17 06:18:33;;;;;;;;;17.50;15.25;;;;;20.59;44.69;97669.22;6225076;28;125045;-60
2021/05/17 06:21:36;;;;;;;;;13.75;13.00;;;;;20.60;44.97;97661.81;6220721;27;126843;-61
2021/05/17 06:24:41;;;;;;;;;14.00;14.00;;;;;20.67;45.56;97662.19;6223693;28;125032;-61
2021/05/17 06:27:44;;;;;;;;;15.00;14.00;;;;;20.81;46.30;97648.38;6225692;27;124591;-61
2021/05/17 06:30:50;;;;;;;;;13.00;13.00;;;;;20.97;44.73;97653.06;6220255;28;126133;-61
2021/05/17 06:33:53;;;;;;;;;18.00;16.00;;;;;21.13;45.01;97650.69;6230360;27;126521;-61
2021/05/17 06:36:56;;;;;;;;;19.00;16.00;;;;;21.21;43.88;97643.66;6211633;28;125094;-61
2021/05/17 06:40:01;;;;;;;;;15.00;13.00;;;;;21.38;43.40;97638.97;6230161;27;125336;-62
2021/05/17 06:43:05;;;;;;;;;14.50;14.00;;;;;21.51;43.83;97629.78;6230147;27;124785;-61
2021/05/17 06:46:09;;;;;;;;;12.60;10.60;;;;;21.71;43.32;97636.53;6210204;28;126467;-61
2021/05/17 06:49:12;;;;;;;;;15.00;12.00;;;;;21.96;43.27;97626.69;6226038;28;124763;-61
2021/05/17 06:52:17;;;;;;;;;14.25;13.00;;;;;22.10;41.86;97631.97;6228755;28;125238;-61
2021/05/17 06:55:25;;;;;;;;;12.00;12.00;;;;;22.08;41.96;97626.84;6212053;28;125895;-61
2021/05/17 06:58:34;;;;;;;;;15.40;14.00;;;;;22.22;42.37;97621.94;6229911;27;124818;-61
2021/05/17 07:01:37;;;;;;;;;14.00;13.00;;;;;22.59;42.36;97627.78;6212850;28;126322;-62
2021/05/17 07:04:41;;;;;;;;;13.20;12.20;;;;;22.92;42.03;97617.75;6211640;28;125193;-61
2021/05/17 07:07:53;;;;;;;;;13.40;12.40;;;;;23.19;41.40;97620.03;6228224;27;126203;-61
2021/05/17 07:14:18;;;;;;;;;8.60;8.00;;;;;23.80;39.06;97601.06;6223995;27;125940;-62
2021/05/17 07:17:20;;;;;;;;;8.00;8.00;;;;;24.16;38.32;97605.91;6229247;27;126000;-62
2021/05/17 07:20:28;;;;;;;;;6.00;6.00;;;;;24.33;36.58;97621.47;6214537;27;126064;-62
2021/05/17 07:23:41;;;;;;;;;6.00;6.00;;;;;24.36;37.05;97612.50;6194933;28;126606;-63
2021/05/17 07:26:44;;;;;;;;;7.60;7.00;;;;;24.47;36.93;97600.69;6205540;28;125861;-62
2021/05/17 07:29:49;;;;;;;;;6.60;5.60;;;;;24.58;36.98;97606.56;6208491;28;125818;-62
2021/05/17 07:32:52;;;;;;;;;5.40;5.40;;;;;24.71;37.54;97607.38;6209655;28;124652;-62
2021/05/17 07:35:55;;;;;;;;;5.00;5.00;;;;;24.81;36.60;97601.38;6208847;28;124381;-62
2021/05/17 07:38:58;;;;;;;;;6.00;5.00;;;;;24.92;35.30;97602.56;6206631;28;124841;-62
2021/05/17 07:42:02;;;;;;;;;5.00;4.00;;;;;25.03;36.52;97595.41;6198348;28;124697;-62
2021/05/17 07:45:07;;;;;;;;;6.00;6.00;;;;;25.16;36.27;97571.38;6212056;28;124969;-62
2021/05/17 07:48:11;;;;;;;;;5.00;5.00;;;;;25.72;34.60;97581.31;6205662;28;123837;-62
2021/05/17 07:51:14;;;;;;;;;5.00;4.75;;;;;25.86;34.92;97580.91;6199453;28;123379;-62
2021/05/17 07:54:19;;;;;;;;;5.00;5.00;;;;;26.00;34.81;97588.81;6211441;28;125051;-62
2021/05/17 07:57:23;;;;;;;;;5.00;5.00;;;;;26.05;34.94;97585.75;6211451;28;125333;-62
2021/05/17 08:00:26;;;;;;;;;4.00;4.00;;;;;26.29;33.95;97574.59;6194633;28;123650;-62
2021/05/17 08:03:34;;;;;;;;;6.00;5.00;;;;;26.41;34.49;97570.94;6192383;28;126515;-62
2021/05/17 08:06:37;;;;;;;;;5.00;5.00;;;;;26.54;34.32;97576.00;6200660;28;124969;-63
2021/05/17 08:09:40;;;;;;;;;5.60;5.40;;;;;26.59;33.94;97575.72;6199450;28;125195;-62
2021/05/17 08:12:43;;;;;;;;;5.60;5.00;;;;;26.61;33.76;97559.59;6210095;28;124330;-63
2021/05/17 08:15:46;;;;;;;;;7.00;6.00;;;;;26.54;33.71;97564.16;6210484;28;124900;-62
2021/05/17 08:18:51;;;;;;;;;6.00;6.00;;;;;26.27;33.79;97560.34;6197518;28;126813;-62
2021/05/17 08:21:54;;;;;;;;;6.40;5.40;;;;;26.18;34.52;97562.44;6197284;28;125146;-62
2021/05/17 08:24:57;;;;;;;;;6.40;6.00;;;;;26.24;34.07;97556.31;6209198;28;126706;-62
2021/05/17 08:28:00;;;;;;;;;6.00;5.00;;;;;26.19;34.75;97544.72;6196459;28;126403;-62
2021/05/17 08:31:04;;;;;;;;;5.60;5.00;;;;;26.15;35.24;97536.31;6199209;28;124668;-62
2021/05/17 08:34:07;;;;;;;;;7.00;6.00;;;;;26.43;34.41;97557.56;6206611;28;126140;-62
2021/05/17 08:37:10;;;;;;;;;7.00;6.00;;;;;26.38;34.53;97552.31;6188979;28;124178;-62
2021/05/17 08:40:14;;;;;;;;;5.60;5.60;;;;;26.37;36.31;97548.75;6199541;28;125023;-62
2021/05/17 08:43:17;;;;;;;;;5.80;5.80;;;;;26.38;36.48;97555.88;6210641;28;126112;-62
2021/05/17 08:46:20;;;;;;;;;6.60;6.00;;;;;26.43;35.54;97550.09;6192590;28;125120;-62
2021/05/17 08:49:23;;;;;;;;;6.00;5.60;;;;;26.53;35.65;97543.22;6210072;28;126388;-62
2021/05/17 08:52:26;;;;;;;;;6.00;5.00;;;;;26.58;34.89;97549.28;6209975;28;124738;-63
2021/05/17 08:55:28;;;;;;;;;6.00;6.00;;;;;26.51;34.27;97545.53;6185075;28;125261;-62
2021/05/17 08:58:35;;;;;;;;;6.00;5.50;;;;;26.22;35.44;97521.94;6184370;28;125939;-60
2021/05/17 09:01:38;;;;;;;;;5.20;5.20;;;;;26.26;35.89;97554.00;6203777;28;126182;-62
2021/05/17 09:05:02;;;;;;;;;7.00;6.00;;;;;25.87;35.35;97557.66;6202480;28;126366;-63
2021/05/17 09:08:06;;;;;;;;;7.60;6.00;;;;;25.67;36.40;97545.69;6208066;28;125293;-61
2021/05/17 09:11:09;;;;;;;;;7.00;6.00;;;;;25.69;36.13;97550.88;6203787;28;125792;-61
2021/05/17 09:14:13;;;;;;;;;6.75;6.00;;;;;25.66;36.61;97541.31;6209196;28;126268;-61
2021/05/17 09:17:16;;;;;;;;;6.00;6.00;;;;;25.66;36.95;97546.84;6208359;28;125130;-62
2021/05/17 09:20:22;;;;;;;;;8.00;7.00;;;;;25.72;37.30;97545.44;6207402;28;125206;-62
2021/05/17 09:23:27;;;;;;;;;7.00;7.00;;;;;25.69;36.80;97545.34;6208456;28;123659;-61
2021/05/17 09:26:30;;;;;;;;;5.00;5.00;;;;;25.75;36.53;97547.50;6206797;28;125108;-62
2021/05/17 09:29:38;;;;;;;;;7.25;7.25;;;;;25.47;35.93;97519.09;6184660;28;126068;-60
2021/05/17 09:32:41;;;;;;;;;6.00;5.80;;;;;25.54;36.20;97552.41;6203916;28;125948;-61
2021/05/17 09:35:50;;;;;;;;;5.75;5.00;;;;;25.38;35.63;97543.25;6194700;28;126261;-61
2021/05/17 09:38:58;;;;;;;;;7.40;6.00;;;;;25.37;36.00;97564.53;6203723;28;125236;-61
2021/05/17 09:42:03;;;;;;;;;7.00;6.00;;;;;25.14;35.93;97557.13;6209181;28;125759;-61
2021/05/17 09:45:13;;;;;;;;;6.00;5.60;;;;;24.98;36.13;97559.81;6207936;28;125962;-61
2021/05/17 09:48:17;;;;;;;;;7.00;6.00;;;;;24.81;36.29;97552.59;6207670;28;125121;-61
2021/05/17 09:51:19;;;;;;;;;6.00;5.00;;;;;24.78;36.56;97549.69;6209234;28;126352;-61
2021/05/17 09:54:22;;;;;;;;;6.00;6.00;;;;;24.65;36.97;97557.19;6208984;28;126975;-61
2021/05/17 09:57:28;;;;;;;;;7.00;7.00;;;;;24.61;36.93;97556.28;6207082;28;124214;-61
2021/05/17 10:00:32;;;;;;;;;6.80;6.00;;;;;24.47;36.75;97539.28;6209437;28;124353;-61
2021/05/17 10:03:37;;;;;;;;;7.60;6.60;;;;;24.44;37.03;97546.28;6208273;28;124656;-61
2021/05/17 10:06:53;;;;;;;;;6.00;5.60;;;;;24.26;36.63;97550.41;6204808;28;127832;-61
2021/05/17 10:09:56;;;;;;;;;7.00;7.00;;;;;24.16;36.72;97545.31;6199826;28;126874;-62
2021/05/17 10:13:01;;;;;;;;;7.00;6.00;;;;;24.07;36.54;97547.38;6197374;28;126157;-62
2021/05/17 10:16:07;;;;;;;;;7.00;6.00;;;;;24.14;35.91;97540.13;6193133;28;126160;-62
2021/05/17 10:19:10;;;;;;;;;5.00;5.00;;;;;24.17;36.20;97539.50;6196016;28;125939;-62
2021/05/17 10:22:13;;;;;;;;;5.60;5.00;;;;;24.24;35.80;97541.66;6196286;28;126156;-62
2021/05/17 10:25:24;;;;;;;;;4.80;4.00;;;;;24.28;35.76;97534.34;6198831;28;123600;-62
2021/05/17 10:28:31;;;;;;;;;5.00;5.00;;;;;24.15;36.05;97510.66;6206287;28;124460;-62
2021/05/17 10:31:35;;;;;;;;;7.00;6.00;;;;;24.15;35.92;97528.00;6206872;28;123723;-62
2021/05/17 10:34:48;;;;;;;;;7.00;5.60;;;;;24.28;36.29;97530.78;6200824;28;125045;-61
2021/05/17 10:37:51;;;;;;;;;7.00;7.00;;;;;24.37;36.46;97524.03;6198211;28;126011;-62
2021/05/17 10:41:01;;;;;;;;;7.00;6.60;;;;;24.43;36.64;97521.84;6207347;28;127156;-62
2021/05/17 10:44:11;;;;;;;;;8.00;7.00;;;;;24.48;37.32;97518.84;6200327;28;125991;-62
2021/05/17 10:47:27;;;;;;;;;8.00;7.00;;;;;24.51;38.10;97523.66;6201994;28;124876;-61
2021/05/17 10:50:30;;;;;;;;;6.00;6.00;;;;;24.54;37.89;97525.72;6208948;28;126369;-62
2021/05/17 10:53:45;;;;;;;;;6.60;6.00;;;;;24.59;38.00;97526.28;6192214;28;125295;-62
2021/05/17 10:56:54;;;;;;;;;6.00;6.00;;;;;24.57;38.23;97522.28;6213728;28;126314;-62
2021/05/17 11:03:20;;;;;;;;;7.00;6.00;;;;;24.72;37.61;97513.31;6210668;28;126498;-62
2021/05/17 11:06:26;;;;;;;;;6.40;6.00;;;;;24.69;37.86;97515.94;6213164;28;124830;-62
2021/05/17 11:09:40;;;;;;;;;6.75;6.00;;;;;24.63;37.28;97518.13;6207125;28;126343;-61
2021/05/17 11:13:01;;;;;;;;;7.50;6.50;;;;;24.43;37.57;97481.34;6205318;28;124894;-62
2021/05/17 11:16:14;;;;;;;;;8.25;7.00;;;;;24.55;38.17;97510.81;6212046;28;124963;-62
2021/05/17 11:19:19;;;;;;;;;7.00;7.00;;;;;24.43;38.00;97517.16;6211723;28;125955;-62
2021/05/17 11:22:22;;;;;;;;;7.60;7.00;;;;;24.22;38.21;97510.94;6199026;28;125123;-62
2021/05/17 11:25:50;;;;;;;;;7.60;7.00;;;;;23.99;37.64;97513.31;6205778;28;125303;-61
2021/05/17 11:29:00;;;;;;;;;7.60;7.00;;;;;23.70;38.25;97506.00;6200111;28;126566;-62
2021/05/17 11:32:12;;;;;;;;;10.00;9.00;;;;;23.46;38.53;97481.19;6200755;28;125701;-62
2021/05/17 11:35:21;;;;;;;;;8.20;8.00;;;;;23.58;39.11;97505.97;6204986;28;126083;-62
2021/05/17 11:38:24;;;;;;;;;8.00;7.00;;;;;23.53;39.74;97513.66;6198647;28;122902;-62
2021/05/17 11:41:30;;;;;;;;;8.00;7.00;;;;;23.41;40.44;97519.09;6200170;28;124998;-62
2021/05/17 11:44:36;;;;;;;;;10.20;8.20;;;;;23.24;41.47;97518.09;6212686;28;125683;-62
2021/05/17 11:47:39;;;;;;;;;11.50;10.50;;;;;23.01;41.81;97516.84;6202841;28;125705;-62
2021/05/17 11:50:44;;;;;;;;;12.00;10.00;;;;;22.83;42.39;97524.41;6193147;28;126405;-61
2021/05/17 11:53:47;;;;;;;;;9.00;8.00;;;;;22.79;42.74;97519.91;6207785;28;126057;-62
2021/05/17 11:56:51;;;;;;;;;8.00;8.00;;;;;22.59;43.58;97520.66;6212498;28;125291;-62
2021/05/17 11:59:55;;;;;;;;;9.80;6.80;;;;;22.41;44.25;97517.22;6212521;28;126758;-62
2021/05/17 12:02:57;;;;;;;;;7.60;7.60;;;;;22.39;45.62;97522.22;6212544;28;126277;-62
2021/05/17 12:06:02;;;;;;;;;8.00;7.60;;;;;22.20;45.84;97483.41;6204086;28;125197;-62
2021/05/17 12:09:05;;;;;;;;;7.00;7.00;;;;;22.33;46.23;97513.34;6200147;28;124887;-61
2021/05/17 12:12:10;;;;;;;;;9.00;7.75;;;;;22.30;46.21;97505.78;6212428;28;125136;-60
2021/05/17 12:15:17;;;;;;;;;8.80;6.80;;;;;22.16;46.30;97510.72;6204858;28;123823;-61
2021/05/17 12:18:20;;;;;;;;;7.00;7.00;;;;;22.02;46.48;97507.38;6201451;28;125784;-61
2021/05/17 12:21:23;;;;;;;;;9.00;8.00;;;;;22.02;46.89;97513.69;6211001;28;124156;-61
2021/05/17 12:24:28;;;;;;;;;6.00;6.00;;;;;22.07;47.39;97509.94;6197590;28;124819;-60
2021/05/17 12:27:31;;;;;;;;;7.50;6.50;;;;;22.11;47.50;97507.34;6195899;28;124799;-61
2021/05/17 12:30:35;;;;;;;;;6.00;5.00;;;;;22.08;47.58;97514.31;6211709;28;126071;-60
2021/05/17 12:33:41;;;;;;;;;8.00;7.00;;;;;22.15;46.89;97502.78;6206908;28;126723;-61
2021/05/17 12:36:46;;;;;;;;;6.00;5.75;;;;;22.10;46.47;97506.53;6204229;28;126808;-61
2021/05/17 12:40:21;;;;;;;;;6.00;5.00;;;;;22.13;46.59;97505.09;6211679;28;124679;-61
2021/05/17 12:43:35;;;;;;;;;5.60;5.00;;;;;22.13;46.27;97500.41;6204061;28;125481;-60
2021/05/17 12:46:38;;;;;;;;;5.60;5.00;;;;;22.20;46.23;97494.38;6197005;28;125405;-61
2021/05/17 12:49:58;;;;;;;;;6.50;6.00;;;;;22.24;46.11;97492.56;6192245;28;126640;-62
2021/05/17 12:53:05;;;;;;;;;6.00;5.00;;;;;22.12;46.14;97497.97;6195050;28;125968;-61
2021/05/17 12:56:08;;;;;;;;;7.00;6.00;;;;;22.00;46.56;97495.94;6200814;28;124845;-60
2021/05/17 12:59:14;;;;;;;;;6.00;6.00;;;;;21.90;47.04;97497.06;6202809;28;124952;-60
2021/05/17 13:02:17;;;;;;;;;6.00;4.00;;;;;21.63;47.27;97467.31;6200733;28;125997;-60
2021/05/17 13:05:20;;;;;;;;;5.00;4.60;;;;;21.80;47.33;97499.34;6206969;28;124737;-61
2021/05/17 13:08:28;;;;;;;;;6.00;6.00;;;;;21.68;47.54;97502.00;6210627;28;126226;-60
2021/05/17 13:11:42;;;;;;;;;5.00;5.00;;;;;21.67;48.07;97506.66;6199908;28;124259;-61
2021/05/17 13:14:45;;;;;;;;;7.00;6.00;;;;;21.59;48.23;97500.09;6198550;28;125976;-61
2021/05/17 13:17:55;;;;;;;;;7.50;6.00;;;;;21.46;48.66;97498.31;6196907;28;126246;-61
2021/05/17 13:21:12;;;;;;;;;6.00;6.00;;;;;21.48;48.62;97492.53;6199531;28;125543;-61
2021/05/17 13:24:38;;;;;;;;;6.20;6.00;;;;;21.46;48.18;97492.84;6195778;28;125341;-61
2021/05/17 13:31:05;;;;;;;;;8.00;8.00;;;;;21.35;49.31;97488.03;6199613;28;126235;-61
2021/05/17 13:34:10;;;;;;;;;7.20;7.00;;;;;21.41;49.29;97497.69;6197205;28;124747;-61
2021/05/17 13:37:13;;;;;;;;;7.00;6.00;;;;;21.44;48.50;97489.63;6197888;28;126115;-61
2021/05/17 13:40:18;;;;;;;;;4.25;4.25;;;;;21.34;48.61;97491.91;6198495;28;126706;-62
2021/05/17 13:43:22;;;;;;;;;6.20;6.20;;;;;21.34;48.66;97498.19;6200372;28;126648;-62
2021/05/17 13:46:25;;;;;;;;;6.00;6.00;;;;;21.24;48.00;97484.03;6200599;28;126116;-60
2021/05/17 13:49:32;;;;;;;;;5.00;5.00;;;;;21.25;48.01;97491.94;6194697;28;124389;-61
2021/05/17 13:52:35;;;;;;;;;6.80;5.80;;;;;21.28;48.01;97493.19;6203530;28;124822;-61
2021/05/17 13:55:39;;;;;;;;;6.00;6.00;;;;;21.21;48.21;97490.94;6200036;28;123730;-61
2021/05/17 13:58:42;;;;;;;;;7.00;6.00;;;;;21.28;47.96;97493.19;6204377;28;124960;-61
2021/05/17 14:01:45;;;;;;;;;6.00;6.00;;;;;21.16;47.97;97480.16;6199348;28;126206;-61
2021/05/17 14:04:48;;;;;;;;;5.00;5.00;;;;;21.23;48.03;97475.00;6200509;28;123153;-61
2021/05/17 14:07:51;;;;;;;;;6.00;6.00;;;;;21.31;47.88;97484.31;6202156;28;124946;-61
2021/05/17 14:10:54;;;;;;;;;7.80;7.00;;;;;21.29;48.30;97481.13;6209749;28;126423;-61
2021/05/17 14:13:57;;;;;;;;;6.40;6.40;;;;;21.33;48.74;97484.81;6189196;28;123243;-62
2021/05/17 14:17:00;;;;;;;;;7.40;6.00;;;;;21.35;48.75;97486.09;6201297;28;125438;-61
2021/05/17 14:20:05;;;;;;;;;8.00;7.00;;;;;21.43;48.46;97485.28;6192596;28;125399;-61
2021/05/17 14:23:09;;;;;;;;;7.80;6.80;;;;;21.38;48.85;97490.13;6206040;28;124683;-61
2021/05/17 14:26:13;;;;;;;;;7.00;6.25;;;;;21.48;48.61;97481.56;6208438;28;123428;-61
2021/05/17 14:29:16;;;;;;;;;9.00;9.00;;;;;21.66;48.51;97483.09;6206542;28;124163;-61
2021/05/17 14:32:22;;;;;;;;;8.00;7.40;;;;;21.65;48.02;97486.19;6201126;28;126010;-61
2021/05/17 14:35:25;;;;;;;;;6.40;6.00;;;;;21.66;48.47;97483.09;6201737;28;124890;-61